Ojai, California
Current Conditions -  °F | °C
As of 1:51 AM on Saturday 20 Dec 2014 (Local Time) from KOXR Reporting Station
Broken Clouds Broken Clouds  
Wind Chill: 12°   Ceiling: 2300
Heat Index: 12°   Visibility: 10mi
Dew Point:   Wind: 6mph
Humidity: 80%   Direction: 60°ENE
Pressure: 30.16"   Gusts: NA
Location:  34.44°N, 119.24°W
Report Text: KOXR 200951Z AUTO 06005KT 10SM BKN023 12/08 A3016 RMK AO2 SLP214 T01170083
Loading
Personal Weather Stations






























Interactive Weather Map New forecast layout! Learn more

10-Day Weather Forecast

Advertisements
Track Severe Weather on mobile